sensor_id;sensor_type;location;lat;lon;timestamp;pressure;altitude;pressure_sealevel;temperature;humidity
967;BME280;56108;48.730;9.304;2023-03-04T00:01:39;98091.44;;;0.70;100.00
967;BME280;56108;48.730;9.304;2023-03-04T00:03:47;98095.25;;;0.56;100.00
967;BME280;56108;48.730;9.304;2023-03-04T00:05:57;98096.34;;;0.45;100.00
967;BME280;56108;48.730;9.304;2023-03-04T00:08:05;98094.66;;;0.41;100.00
967;BME280;56108;48.730;9.304;2023-03-04T00:10:14;98091.44;;;0.29;100.00
967;BME280;56108;48.730;9.304;2023-03-04T00:12:22;98088.31;;;0.53;100.00
967;BME280;56108;48.730;9.304;2023-03-04T00:14:30;98097.09;;;0.50;100.00
967;BME280;56108;48.730;9.304;2023-03-04T00:16:38;98090.41;;;0.36;100.00
967;BME280;56108;48.730;9.304;2023-03-04T00:18:46;98086.34;;;0.22;100.00
967;BME280;56108;48.730;9.304;2023-03-04T00:20:53;98089.00;;;0.19;100.00
967;BME280;56108;48.730;9.304;2023-03-04T00:23:04;98088.41;;;0.05;100.00
967;BME280;56108;48.730;9.304;2023-03-04T00:25:12;98085.16;;;-0.05;100.00
967;BME280;56108;48.730;9.304;2023-03-04T00:27:20;98084.38;;;-0.10;100.00
967;BME280;56108;48.730;9.304;2023-03-04T00:29:28;98086.22;;;-0.15;100.00
967;BME280;56108;48.730;9.304;2023-03-04T00:31:36;98084.78;;;-0.33;100.00
967;BME280;56108;48.730;9.304;2023-03-04T00:33:44;98085.72;;;-0.37;100.00
967;BME280;56108;48.730;9.304;2023-03-04T00:35:52;98079.78;;;-0.45;100.00
967;BME280;56108;48.730;9.304;2023-03-04T00:38:01;98080.75;;;-0.50;100.00
967;BME280;56108;48.730;9.304;2023-03-04T00:40:13;98076.47;;;-0.55;100.00
967;BME280;56108;48.730;9.304;2023-03-04T00:42:21;98078.25;;;-0.58;100.00
967;BME280;56108;48.730;9.304;2023-03-04T00:44:28;98080.09;;;-0.63;100.00
967;BME280;56108;48.730;9.304;2023-03-04T00:46:36;98080.06;;;-0.60;100.00
967;BME280;56108;48.730;9.304;2023-03-04T00:48:44;98084.38;;;-0.59;100.00
967;BME280;56108;48.730;9.304;2023-03-04T00:50:52;98075.69;;;-0.60;100.00
967;BME280;56108;48.730;9.304;2023-03-04T00:53:00;98076.63;;;-0.64;100.00
967;BME280;56108;48.730;9.304;2023-03-04T00:55:09;98069.75;;;-0.68;100.00
967;BME280;56108;48.730;9.304;2023-03-04T00:57:19;98070.69;;;-0.72;100.00
967;BME280;56108;48.730;9.304;2023-03-04T00:59:27;98064.06;;;-0.43;100.00
967;BME280;56108;48.730;9.304;2023-03-04T01:01:37;98070.34;;;-0.52;100.00
967;BME280;56108;48.730;9.304;2023-03-04T01:03:45;98075.63;;;-0.55;100.00
967;BME280;56108;48.730;9.304;2023-03-04T01:05:52;98070.50;;;-0.63;100.00
967;BME280;56108;48.730;9.304;2023-03-04T01:08:00;98069.81;;;-0.74;100.00
967;BME280;56108;48.730;9.304;2023-03-04T01:10:11;98071.66;;;-0.79;100.00
967;BME280;56108;48.730;9.304;2023-03-04T01:12:21;98060.44;;;-0.86;100.00
967;BME280;56108;48.730;9.304;2023-03-04T01:14:29;98057.84;;;-0.86;100.00
967;BME280;56108;48.730;9.304;2023-03-04T01:16:37;98058.72;;;-0.87;100.00
967;BME280;56108;48.730;9.304;2023-03-04T01:18:45;98058.69;;;-0.85;100.00
967;BME280;56108;48.730;9.304;2023-03-04T01:20:53;98056.16;;;-0.88;100.00
967;BME280;56108;48.730;9.304;2023-03-04T01:23:01;98054.41;;;-0.89;100.00
967;BME280;56108;48.730;9.304;2023-03-04T01:25:09;98050.06;;;-0.90;100.00
967;BME280;56108;48.730;9.304;2023-03-04T01:27:17;98051.84;;;-0.92;100.00
967;BME280;56108;48.730;9.304;2023-03-04T01:29:29;98041.44;;;-0.94;100.00
967;BME280;56108;48.730;9.304;2023-03-04T01:31:39;98046.63;;;-0.92;100.00
967;BME280;56108;48.730;9.304;2023-03-04T01:33:47;98043.16;;;-0.94;100.00
967;BME280;56108;48.730;9.304;2023-03-04T01:35:54;98041.50;;;-0.98;100.00
967;BME280;56108;48.730;9.304;2023-03-04T01:38:04;98038.03;;;-0.99;100.00
967;BME280;56108;48.730;9.304;2023-03-04T01:40:13;98040.69;;;-1.02;100.00
967;BME280;56108;48.730;9.304;2023-03-04T01:42:22;98042.47;;;-1.04;100.00
967;BME280;56108;48.730;9.304;2023-03-04T01:44:33;98036.38;;;-1.03;100.00
967;BME280;56108;48.730;9.304;2023-03-04T01:46:44;98033.84;;;-1.09;100.00
967;BME280;56108;48.730;9.304;2023-03-04T01:48:54;98041.75;;;-1.14;100.00
967;BME280;56108;48.730;9.304;2023-03-04T01:51:03;98037.41;;;-1.13;100.00
967;BME280;56108;48.730;9.304;2023-03-04T01:53:17;98037.38;;;-1.12;100.00
967;BME280;56108;48.730;9.304;2023-03-04T01:55:28;98043.50;;;-1.16;100.00
967;BME280;56108;48.730;9.304;2023-03-04T01:57:38;98033.06;;;-1.14;100.00
967;BME280;56108;48.730;9.304;2023-03-04T02:00:14;98038.19;;;-1.08;100.00
967;BME280;56108;48.730;9.304;2023-03-04T02:02:24;98038.16;;;-1.07;100.00
967;BME280;56108;48.730;9.304;2023-03-04T02:04:33;98031.25;;;-1.09;100.00
967;BME280;56108;48.730;9.304;2023-03-04T02:06:41;98034.72;;;-1.09;100.00
967;BME280;56108;48.730;9.304;2023-03-04T02:08:49;98033.97;;;-1.17;100.00
967;BME280;56108;48.730;9.304;2023-03-04T02:10:58;98029.72;;;-1.24;100.00
967;BME280;56108;48.730;9.304;2023-03-04T02:13:06;98027.22;;;-1.32;100.00
967;BME280;56108;48.730;9.304;2023-03-04T02:15:16;98024.69;;;-1.36;100.00
967;BME280;56108;48.730;9.304;2023-03-04T02:17:25;98025.56;;;-1.37;100.00
967;BME280;56108;48.730;9.304;2023-03-04T02:19:40;98024.72;;;-1.38;100.00
967;BME280;56108;48.730;9.304;2023-03-04T02:21:52;98017.75;;;-1.37;100.00
967;BME280;56108;48.730;9.304;2023-03-04T02:24:06;98016.91;;;-1.39;100.00
967;BME280;56108;48.730;9.304;2023-03-04T02:26:20;98023.97;;;-1.46;100.00
967;BME280;56108;48.730;9.304;2023-03-04T02:28:30;98018.81;;;-1.50;100.00
967;BME280;56108;48.730;9.304;2023-03-04T02:30:38;98019.69;;;-1.51;100.00
967;BME280;56108;48.730;9.304;2023-03-04T02:32:46;98016.22;;;-1.50;100.00
967;BME280;56108;48.730;9.304;2023-03-04T02:34:55;98017.16;;;-1.58;100.00
967;BME280;56108;48.730;9.304;2023-03-04T02:37:03;98012.84;;;-1.59;100.00
967;BME280;56108;48.730;9.304;2023-03-04T02:39:12;98024.13;;;-1.58;100.00
967;BME280;56108;48.730;9.304;2023-03-04T02:41:25;98017.16;;;-1.58;100.00
967;BME280;56108;48.730;9.304;2023-03-04T02:43:36;98015.41;;;-1.57;100.00
967;BME280;56108;48.730;9.304;2023-03-04T02:45:46;98017.25;;;-1.64;100.00
967;BME280;56108;48.730;9.304;2023-03-04T02:47:55;98022.47;;;-1.64;100.00
967;BME280;56108;48.730;9.304;2023-03-04T02:50:03;98012.91;;;-1.63;100.00
967;BME280;56108;48.730;9.304;2023-03-04T02:52:13;98018.16;;;-1.65;100.00
967;BME280;56108;48.730;9.304;2023-03-04T02:54:23;98014.72;;;-1.67;100.00
967;BME280;56108;48.730;9.304;2023-03-04T02:56:34;98021.72;;;-1.70;100.00
967;BME280;56108;48.730;9.304;2023-03-04T02:58:42;98010.41;;;-1.71;100.00
967;BME280;56108;48.730;9.304;2023-03-04T03:00:50;98011.22;;;-1.66;100.00
967;BME280;56108;48.730;9.304;2023-03-04T03:02:58;98023.47;;;-1.71;100.00
967;BME280;56108;48.730;9.304;2023-03-04T03:05:07;98017.38;;;-1.73;100.00
967;BME280;56108;48.730;9.304;2023-03-04T03:07:17;98022.69;;;-1.77;100.00
967;BME280;56108;48.730;9.304;2023-03-04T03:09:26;98021.81;;;-1.78;100.00
967;BME280;56108;48.730;9.304;2023-03-04T03:11:36;98021.81;;;-1.78;100.00
967;BME280;56108;48.730;9.304;2023-03-04T03:13:45;98017.50;;;-1.80;100.00
967;BME280;56108;48.730;9.304;2023-03-04T03:15:53;98024.34;;;-1.73;100.00
967;BME280;56108;48.730;9.304;2023-03-04T03:18:02;98024.41;;;-1.76;100.00
967;BME280;56108;48.730;9.304;2023-03-04T03:20:11;98021.88;;;-1.81;100.00
967;BME280;56108;48.730;9.304;2023-03-04T03:22:19;98019.28;;;-1.82;100.00
967;BME280;56108;48.730;9.304;2023-03-04T03:24:28;98020.09;;;-1.79;100.00
967;BME280;56108;48.730;9.304;2023-03-04T03:26:38;98022.72;;;-1.80;100.00
967;BME280;56108;48.730;9.304;2023-03-04T03:28:46;98013.25;;;-1.86;100.00
967;BME280;56108;48.730;9.304;2023-03-04T03:30:54;98015.91;;;-1.91;100.00
967;BME280;56108;48.730;9.304;2023-03-04T03:33:02;98011.56;;;-1.92;100.00
967;BME280;56108;48.730;9.304;2023-03-04T03:35:11;98008.13;;;-1.95;100.00
967;BME280;56108;48.730;9.304;2023-03-04T03:37:19;98011.59;;;-1.95;100.00
967;BME280;56108;48.730;9.304;2023-03-04T03:39:27;98014.22;;;-1.95;100.00
967;BME280;56108;48.730;9.304;2023-03-04T03:41:38;98009.81;;;-1.91;100.00
967;BME280;56108;48.730;9.304;2023-03-04T03:43:46;98010.75;;;-1.95;100.00
967;BME280;56108;48.730;9.304;2023-03-04T03:45:54;98014.28;;;-1.98;100.00
967;BME280;56108;48.730;9.304;2023-03-04T03:48:03;98004.75;;;-2.02;100.00
967;BME280;56108;48.730;9.304;2023-03-04T03:50:11;98002.84;;;-1.88;100.00
967;BME280;56108;48.730;9.304;2023-03-04T03:52:19;98007.28;;;-1.96;100.00
967;BME280;56108;48.730;9.304;2023-03-04T03:54:27;98007.34;;;-2.02;100.00
967;BME280;56108;48.730;9.304;2023-03-04T03:56:38;98008.22;;;-2.01;100.00
967;BME280;56108;48.730;9.304;2023-03-04T03:58:46;98008.31;;;-2.07;100.00
967;BME280;56108;48.730;9.304;2023-03-04T04:00:54;98004.00;;;-2.12;100.00
967;BME280;56108;48.730;9.304;2023-03-04T04:03:02;98005.78;;;-2.15;100.00
967;BME280;56108;48.730;9.304;2023-03-04T04:05:11;98006.69;;;-2.18;100.00
967;BME280;56108;48.730;9.304;2023-03-04T04:07:19;98005.03;;;-2.23;100.00
967;BME280;56108;48.730;9.304;2023-03-04T04:09:27;97997.16;;;-2.20;100.00
967;BME280;56108;48.730;9.304;2023-03-04T04:11:38;97998.84;;;-2.16;100.00
967;BME280;56108;48.730;9.304;2023-03-04T04:13:46;98006.56;;;-2.07;100.00
967;BME280;56108;48.730;9.304;2023-03-04T04:15:55;98005.81;;;-2.20;100.00
967;BME280;56108;48.730;9.304;2023-03-04T04:18:03;98007.72;;;-2.29;100.00
967;BME280;56108;48.730;9.304;2023-03-04T04:20:11;98015.59;;;-2.37;100.00
967;BME280;56108;48.730;9.304;2023-03-04T04:22:20;98013.91;;;-2.41;100.00
967;BME280;56108;48.730;9.304;2023-03-04T04:24:28;98006.09;;;-2.40;100.00
967;BME280;56108;48.730;9.304;2023-03-04T04:26:39;98012.09;;;-2.33;100.00
967;BME280;56108;48.730;9.304;2023-03-04T04:28:47;98011.97;;;-2.22;100.00
967;BME280;56108;48.730;9.304;2023-03-04T04:30:58;98012.69;;;-2.11;100.00
967;BME280;56108;48.730;9.304;2023-03-04T04:33:08;98010.94;;;-2.11;100.00
967;BME280;56108;48.730;9.304;2023-03-04T04:35:17;98012.00;;;-2.24;100.00
967;BME280;56108;48.730;9.304;2023-03-04T04:37:25;98018.13;;;-2.31;100.00
967;BME280;56108;48.730;9.304;2023-03-04T04:39:33;98013.03;;;-2.39;100.00
967;BME280;56108;48.730;9.304;2023-03-04T04:41:44;98011.31;;;-2.41;100.00
967;BME280;56108;48.730;9.304;2023-03-04T04:43:52;98013.09;;;-2.46;100.00
967;BME280;56108;48.730;9.304;2023-03-04T04:46:01;98014.88;;;-2.50;100.00
967;BME280;56108;48.730;9.304;2023-03-04T04:48:09;98018.41;;;-2.54;100.00
967;BME280;56108;48.730;9.304;2023-03-04T04:50:17;98014.94;;;-2.56;100.00
967;BME280;56108;48.730;9.304;2023-03-04T04:52:25;98013.22;;;-2.55;100.00
967;BME280;56108;48.730;9.304;2023-03-04T04:54:33;98013.97;;;-2.44;100.00
967;BME280;56108;48.730;9.304;2023-03-04T04:56:43;98014.94;;;-2.56;100.00
967;BME280;56108;48.730;9.304;2023-03-04T04:58:52;98017.59;;;-2.62;100.00
967;BME280;56108;48.730;9.304;2023-03-04T05:01:00;98018.53;;;-2.68;100.00
967;BME280;56108;48.730;9.304;2023-03-04T05:03:08;98017.72;;;-2.73;100.00
967;BME280;56108;48.730;9.304;2023-03-04T05:05:16;98009.03;;;-2.73;100.00
967;BME280;56108;48.730;9.304;2023-03-04T05:07:24;98009.00;;;-2.72;100.00
967;BME280;56108;48.730;9.304;2023-03-04T05:09:32;98015.97;;;-2.69;100.00
967;BME280;56108;48.730;9.304;2023-03-04T05:11:42;98012.41;;;-2.64;100.00
967;BME280;56108;48.730;9.304;2023-03-04T05:13:50;98013.91;;;-2.40;100.00
967;BME280;56108;48.730;9.304;2023-03-04T05:15:58;98013.06;;;-2.40;100.00
967;BME280;56108;48.730;9.304;2023-03-04T05:18:09;98016.66;;;-2.53;100.00
967;BME280;56108;48.730;9.304;2023-03-04T05:20:17;98009.91;;;-2.71;100.00
967;BME280;56108;48.730;9.304;2023-03-04T05:22:25;98015.13;;;-2.71;100.00
967;BME280;56108;48.730;9.304;2023-03-04T05:24:33;98017.88;;;-2.88;100.00
967;BME280;56108;48.730;9.304;2023-03-04T05:26:44;98016.19;;;-2.94;100.00
967;BME280;56108;48.730;9.304;2023-03-04T05:28:52;98012.75;;;-2.96;100.00
967;BME280;56108;48.730;9.304;2023-03-04T05:31:00;98015.38;;;-2.97;100.00
967;BME280;56108;48.730;9.304;2023-03-04T05:33:09;98010.97;;;-2.91;100.00
967;BME280;56108;48.730;9.304;2023-03-04T05:35:17;98001.41;;;-2.90;100.00
967;BME280;56108;48.730;9.304;2023-03-04T05:37:25;98009.16;;;-2.84;100.00
967;BME280;56108;48.730;9.304;2023-03-04T05:39:33;98009.09;;;-2.78;100.00
967;BME280;56108;48.730;9.304;2023-03-04T05:41:40;98014.44;;;-2.92;100.00
967;BME280;56108;48.730;9.304;2023-03-04T05:43:51;98013.56;;;-2.94;100.00
967;BME280;56108;48.730;9.304;2023-03-04T05:46:00;98017.97;;;-2.99;100.00
967;BME280;56108;48.730;9.304;2023-03-04T05:48:08;98011.91;;;-3.01;100.00
967;BME280;56108;48.730;9.304;2023-03-04T05:50:17;98014.53;;;-3.02;100.00
967;BME280;56108;48.730;9.304;2023-03-04T05:52:25;98016.16;;;-2.89;100.00
967;BME280;56108;48.730;9.304;2023-03-04T05:54:33;98006.53;;;-2.84;100.00
967;BME280;56108;48.730;9.304;2023-03-04T05:56:41;98009.94;;;-2.74;100.00
967;BME280;56108;48.730;9.304;2023-03-04T05:58:52;98010.78;;;-2.71;100.00
967;BME280;56108;48.730;9.304;2023-03-04T06:01:00;98016.94;;;-2.82;100.00
967;BME280;56108;48.730;9.304;2023-03-04T06:03:13;98019.63;;;-2.90;100.00
967;BME280;56108;48.730;9.304;2023-03-04T06:05:21;98016.03;;;-2.78;100.00
967;BME280;56108;48.730;9.304;2023-03-04T06:07:29;98015.16;;;-2.76;100.00
967;BME280;56108;48.730;9.304;2023-03-04T06:09:37;98029.75;;;-2.59;100.00
967;BME280;56108;48.730;9.304;2023-03-04T06:11:50;98023.63;;;-2.57;100.00
967;BME280;56108;48.730;9.304;2023-03-04T06:14:02;98028.91;;;-2.60;100.00
967;BME280;56108;48.730;9.304;2023-03-04T06:16:14;98033.16;;;-2.56;100.00
967;BME280;56108;48.730;9.304;2023-03-04T06:18:22;98028.78;;;-2.49;100.00
967;BME280;56108;48.730;9.304;2023-03-04T06:20:30;98039.13;;;-2.40;100.00
967;BME280;56108;48.730;9.304;2023-03-04T06:22:38;98046.13;;;-2.48;100.00
967;BME280;56108;48.730;9.304;2023-03-04T06:24:46;98050.38;;;-2.38;100.00
967;BME280;56108;48.730;9.304;2023-03-04T06:26:54;98050.28;;;-2.29;100.00
967;BME280;56108;48.730;9.304;2023-03-04T06:29:05;98052.75;;;-2.20;100.00
967;BME280;56108;48.730;9.304;2023-03-04T06:31:14;98057.06;;;-2.16;100.00
967;BME280;56108;48.730;9.304;2023-03-04T06:33:22;98065.63;;;-2.04;100.00
967;BME280;56108;48.730;9.304;2023-03-04T06:35:30;98070.03;;;-2.08;100.00
967;BME280;56108;48.730;9.304;2023-03-04T06:37:38;98076.84;;;-1.99;100.00
967;BME280;56108;48.730;9.304;2023-03-04T06:41:54;98096.44;;;-1.65;100.00
967;BME280;56108;48.730;9.304;2023-03-04T06:44:04;98100.53;;;-1.47;100.00
967;BME280;56108;48.730;9.304;2023-03-04T06:46:12;98099.53;;;-1.35;100.00
967;BME280;56108;48.730;9.304;2023-03-04T06:48:20;98106.97;;;-1.11;100.00
967;BME280;56108;48.730;9.304;2023-03-04T06:50:28;98116.31;;;-0.94;100.00
967;BME280;56108;48.730;9.304;2023-03-04T06:52:36;98124.13;;;-0.91;100.00
967;BME280;56108;48.730;9.304;2023-03-04T06:54:44;98132.59;;;-0.79;100.00
967;BME280;56108;48.730;9.304;2023-03-04T06:56:53;98138.72;;;-0.80;100.00
967;BME280;56108;48.730;9.304;2023-03-04T06:59:00;98138.34;;;-0.55;100.00
967;BME280;56108;48.730;9.304;2023-03-04T07:01:15;98138.19;;;-0.46;100.00
967;BME280;56108;48.730;9.304;2023-03-04T07:03:23;98143.28;;;-0.38;100.00
967;BME280;56108;48.730;9.304;2023-03-04T07:05:32;98143.06;;;-0.24;100.00
967;BME280;56108;48.730;9.304;2023-03-04T07:07:39;98147.44;;;-0.25;100.00
967;BME280;56108;48.730;9.304;2023-03-04T07:09:48;98150.00;;;-0.23;100.00
967;BME280;56108;48.730;9.304;2023-03-04T07:11:55;98148.41;;;-0.32;100.00
967;BME280;56108;48.730;9.304;2023-03-04T07:14:03;98150.94;;;-0.28;100.00
967;BME280;56108;48.730;9.304;2023-03-04T07:16:18;98154.34;;;-0.22;100.00
967;BME280;56108;48.730;9.304;2023-03-04T07:18:26;98158.16;;;-0.40;100.00
967;BME280;56108;48.730;9.304;2023-03-04T07:20:34;98165.13;;;-0.41;100.00
967;BME280;56108;48.730;9.304;2023-03-04T07:22:42;98150.16;;;-0.33;100.00
967;BME280;56108;48.730;9.304;2023-03-04T07:24:50;98162.28;;;-0.81;100.00
967;BME280;56108;48.730;9.304;2023-03-04T07:26:59;98165.72;;;-0.77;100.00
967;BME280;56108;48.730;9.304;2023-03-04T07:29:07;98165.56;;;-0.68;100.00
967;BME280;56108;48.730;9.304;2023-03-04T07:31:22;98151.25;;;-0.44;100.00
967;BME280;56108;48.730;9.304;2023-03-04T07:33:31;98164.00;;;-0.26;100.00
967;BME280;56108;48.730;9.304;2023-03-04T07:35:39;98164.09;;;-0.31;100.00
967;BME280;56108;48.730;9.304;2023-03-04T07:37:47;98169.06;;;-0.15;100.00
967;BME280;56108;48.730;9.304;2023-03-04T07:39:55;98168.13;;;-0.13;100.00
967;BME280;56108;48.730;9.304;2023-03-04T07:42:03;98171.88;;;-0.26;100.00
967;BME280;56108;48.730;9.304;2023-03-04T07:44:16;98168.34;;;-0.27;100.00
967;BME280;56108;48.730;9.304;2023-03-04T07:46:28;98171.34;;;-0.48;100.00
967;BME280;56108;48.730;9.304;2023-03-04T07:48:36;98170.47;;;-0.47;100.00
967;BME280;56108;48.730;9.304;2023-03-04T07:50:44;98175.53;;;-0.36;100.00
967;BME280;56108;48.730;9.304;2023-03-04T07:52:52;98166.38;;;-0.12;100.00
967;BME280;56108;48.730;9.304;2023-03-04T07:55:00;98171.13;;;0.14;100.00
967;BME280;56108;48.730;9.304;2023-03-04T07:57:08;98175.47;;;0.15;100.00
967;BME280;56108;48.730;9.304;2023-03-04T07:59:16;98180.50;;;0.25;100.00
967;BME280;56108;48.730;9.304;2023-03-04T08:01:28;98185.56;;;0.35;100.00
967;BME280;56108;48.730;9.304;2023-03-04T08:03:37;98194.84;;;0.05;100.00
967;BME280;56108;48.730;9.304;2023-03-04T08:05:46;98196.53;;;0.09;100.00
967;BME280;56108;48.730;9.304;2023-03-04T08:07:54;98197.25;;;0.17;100.00
967;BME280;56108;48.730;9.304;2023-03-04T08:10:02;98200.03;;;0.08;100.00
967;BME280;56108;48.730;9.304;2023-03-04T08:12:11;98200.16;;;0.02;100.00
967;BME280;56108;48.730;9.304;2023-03-04T08:14:19;98194.25;;;-0.11;100.00
967;BME280;56108;48.730;9.304;2023-03-04T08:16:30;98203.06;;;-0.17;100.00
967;BME280;56108;48.730;9.304;2023-03-04T08:18:38;98207.13;;;-0.01;100.00
967;BME280;56108;48.730;9.304;2023-03-04T08:20:46;98208.78;;;0.07;100.00
967;BME280;56108;48.730;9.304;2023-03-04T08:22:54;98203.75;;;-0.06;100.00
967;BME280;56108;48.730;9.304;2023-03-04T08:25:02;98206.28;;;-0.01;100.00
967;BME280;56108;48.730;9.304;2023-03-04T08:27:10;98209.41;;;0.19;100.00
967;BME280;56108;48.730;9.304;2023-03-04T08:29:20;98212.59;;;0.35;100.00
967;BME280;56108;48.730;9.304;2023-03-04T08:31:31;98219.09;;;0.16;100.00
967;BME280;56108;48.730;9.304;2023-03-04T08:33:39;98215.00;;;0.01;100.00
967;BME280;56108;48.730;9.304;2023-03-04T08:35:47;98220.22;;;0.01;100.00
967;BME280;56108;48.730;9.304;2023-03-04T08:37:56;98219.09;;;0.14;100.00
967;BME280;56108;48.730;9.304;2023-03-04T08:40:08;98223.28;;;-0.25;100.00
967;BME280;56108;48.730;9.304;2023-03-04T08:42:16;98223.25;;;-0.23;100.00
967;BME280;56108;48.730;9.304;2023-03-04T08:44:24;98220.22;;;-0.01;100.00
967;BME280;56108;48.730;9.304;2023-03-04T08:46:35;98220.16;;;0.04;100.00
967;BME280;56108;48.730;9.304;2023-03-04T08:48:43;98228.47;;;0.26;100.00
967;BME280;56108;48.730;9.304;2023-03-04T08:50:51;98224.31;;;0.14;100.00
967;BME280;56108;48.730;9.304;2023-03-04T08:52:59;98227.97;;;0.07;100.00
967;BME280;56108;48.730;9.304;2023-03-04T08:55:07;98227.03;;;0.10;100.00
967;BME280;56108;48.730;9.304;2023-03-04T08:57:16;98229.38;;;0.27;100.00
967;BME280;56108;48.730;9.304;2023-03-04T08:59:24;98233.53;;;0.35;100.00
967;BME280;56108;48.730;9.304;2023-03-04T09:01:35;98220.22;;;0.49;100.00
967;BME280;56108;48.730;9.304;2023-03-04T09:03:43;98234.00;;;0.59;100.00
967;BME280;56108;48.730;9.304;2023-03-04T09:05:52;98229.31;;;0.74;100.00
967;BME280;56108;48.730;9.304;2023-03-04T09:07:59;98233.28;;;0.92;100.00
967;BME280;56108;48.730;9.304;2023-03-04T09:10:09;98236.56;;;1.03;100.00
967;BME280;56108;48.730;9.304;2023-03-04T09:12:17;98239.34;;;0.96;100.00
967;BME280;56108;48.730;9.304;2023-03-04T09:14:25;98243.91;;;1.28;100.00
967;BME280;56108;48.730;9.304;2023-03-04T09:16:36;98242.78;;;1.38;100.00
967;BME280;56108;48.730;9.304;2023-03-04T09:18:44;98237.84;;;1.26;100.00
967;BME280;56108;48.730;9.304;2023-03-04T09:20:52;98247.22;;;1.36;100.00
967;BME280;56108;48.730;9.304;2023-03-04T09:23:00;98244.94;;;1.19;100.00
967;BME280;56108;48.730;9.304;2023-03-04T09:25:12;98250.66;;;1.38;100.00
967;BME280;56108;48.730;9.304;2023-03-04T09:27:20;98247.94;;;1.02;100.00
967;BME280;56108;48.730;9.304;2023-03-04T09:29:28;98244.59;;;0.96;100.00
967;BME280;56108;48.730;9.304;2023-03-04T09:31:39;98244.22;;;1.13;100.00
967;BME280;56108;48.730;9.304;2023-03-04T09:33:47;98241.38;;;1.23;100.00
967;BME280;56108;48.730;9.304;2023-03-04T09:35:55;98243.69;;;1.37;100.00
967;BME280;56108;48.730;9.304;2023-03-04T09:38:04;98245.47;;;1.37;100.00
967;BME280;56108;48.730;9.304;2023-03-04T09:40:18;98243.69;;;1.37;100.00
967;BME280;56108;48.730;9.304;2023-03-04T09:42:33;98247.78;;;1.49;100.00
967;BME280;56108;48.730;9.304;2023-03-04T09:44:45;98246.69;;;1.59;100.00
967;BME280;56108;48.730;9.304;2023-03-04T09:46:58;98242.00;;;1.72;100.00
967;BME280;56108;48.730;9.304;2023-03-04T09:49:09;98240.00;;;1.46;100.00
967;BME280;56108;48.730;9.304;2023-03-04T09:51:20;98237.75;;;1.68;100.00
967;BME280;56108;48.730;9.304;2023-03-04T09:53:33;98236.81;;;2.06;100.00
967;BME280;56108;48.730;9.304;2023-03-04T09:55:44;98242.47;;;2.25;100.00
967;BME280;56108;48.730;9.304;2023-03-04T09:58:01;98249.06;;;2.40;98.61
967;BME280;56108;48.730;9.304;2023-03-04T10:00:15;98237.53;;;2.45;97.88
967;BME280;56108;48.730;9.304;2023-03-04T10:02:37;98243.69;;;2.77;96.84
967;BME280;56108;48.730;9.304;2023-03-04T10:04:49;98246.63;;;2.65;95.93
967;BME280;56108;48.730;9.304;2023-03-04T10:07:00;98242.22;;;2.67;94.58
967;BME280;56108;48.730;9.304;2023-03-04T10:09:13;98243.44;;;2.53;94.60
967;BME280;56108;48.730;9.304;2023-03-04T10:11:26;98244.72;;;2.39;94.80
967;BME280;56108;48.730;9.304;2023-03-04T10:13:39;98241.38;;;1.98;95.76
967;BME280;56108;48.730;9.304;2023-03-04T10:15:49;98240.59;;;1.94;95.62
967;BME280;56108;48.730;9.304;2023-03-04T10:18:06;98247.63;;;2.28;96.28
967;BME280;56108;48.730;9.304;2023-03-04T10:20:21;98237.06;;;2.31;95.23
967;BME280;56108;48.730;9.304;2023-03-04T10:22:34;98236.31;;;1.90;95.18
967;BME280;56108;48.730;9.304;2023-03-04T10:24:42;98226.25;;;2.09;97.75
967;BME280;56108;48.730;9.304;2023-03-04T10:26:54;98232.72;;;1.94;96.01
967;BME280;56108;48.730;9.304;2023-03-04T10:29:05;98234.47;;;1.58;97.22
967;BME280;56108;48.730;9.304;2023-03-04T10:31:18;98234.75;;;1.83;98.48
967;BME280;56108;48.730;9.304;2023-03-04T10:33:32;98233.44;;;2.01;99.10
967;BME280;56108;48.730;9.304;2023-03-04T10:35:44;98235.47;;;2.24;96.99
967;BME280;56108;48.730;9.304;2023-03-04T10:37:52;98232.19;;;2.48;95.16
967;BME280;56108;48.730;9.304;2023-03-04T10:40:00;98232.81;;;2.58;93.67
967;BME280;56108;48.730;9.304;2023-03-04T10:42:25;98226.72;;;2.87;91.44
967;BME280;56108;48.730;9.304;2023-03-04T10:44:34;98231.84;;;2.60;87.61
967;BME280;56108;48.730;9.304;2023-03-04T10:46:45;98227.50;;;2.61;88.71
967;BME280;56108;48.730;9.304;2023-03-04T10:48:56;98230.75;;;3.00;87.71
967;BME280;56108;48.730;9.304;2023-03-04T10:51:16;98233.13;;;3.37;84.55
967;BME280;56108;48.730;9.304;2023-03-04T10:53:31;98231.22;;;3.43;81.70
967;BME280;56108;48.730;9.304;2023-03-04T10:55:43;98226.00;;;3.69;81.14
967;BME280;56108;48.730;9.304;2023-03-04T10:57:53;98219.53;;;3.79;79.40
967;BME280;56108;48.730;9.304;2023-03-04T11:00:27;98220.94;;;3.63;80.20
967;BME280;56108;48.730;9.304;2023-03-04T11:02:38;98219.03;;;3.68;78.06
967;BME280;56108;48.730;9.304;2023-03-04T11:04:55;98211.47;;;3.57;80.16
967;BME280;56108;48.730;9.304;2023-03-04T11:07:07;98220.09;;;3.62;77.92
967;BME280;56108;48.730;9.304;2023-03-04T11:09:21;98209.88;;;3.80;78.08
967;BME280;56108;48.730;9.304;2023-03-04T11:11:31;98210.44;;;3.89;77.41
967;BME280;56108;48.730;9.304;2023-03-04T11:13:50;98204.75;;;4.02;76.60
967;BME280;56108;48.730;9.304;2023-03-04T11:16:01;98209.06;;;3.78;76.77
967;BME280;56108;48.730;9.304;2023-03-04T11:18:11;98204.41;;;3.86;77.65
967;BME280;56108;48.730;9.304;2023-03-04T11:20:28;98196.91;;;4.00;75.73
967;BME280;56108;48.730;9.304;2023-03-04T11:22:38;98198.97;;;3.92;75.90
967;BME280;56108;48.730;9.304;2023-03-04T11:24:55;98194.03;;;4.08;74.75
967;BME280;56108;48.730;9.304;2023-03-04T11:27:05;98195.13;;;4.01;75.94
967;BME280;56108;48.730;9.304;2023-03-04T11:29:17;98193.78;;;3.89;75.84
967;BME280;56108;48.730;9.304;2023-03-04T11:31:32;98191.00;;;3.93;77.49
967;BME280;56108;48.730;9.304;2023-03-04T11:33:45;98188.84;;;4.05;77.77
967;BME280;56108;48.730;9.304;2023-03-04T11:36:08;98185.59;;;3.98;77.22
967;BME280;56108;48.730;9.304;2023-03-04T11:38:28;98191.50;;;4.05;76.00
967;BME280;56108;48.730;9.304;2023-03-04T11:40:42;98184.75;;;3.96;74.47
967;BME280;56108;48.730;9.304;2023-03-04T11:42:53;98186.63;;;4.19;74.49
967;BME280;56108;48.730;9.304;2023-03-04T11:45:10;98181.09;;;4.00;76.74